Time;durP1;ratioP1;P1;durP2;ratioP2;P2;SDS_P1;SDS_P2;PMS_P1;PMS_P2;Temp;Humidity;BMP_temperature;BMP_pressure;BME280_temperature;BME280_humidity;BME280_pressure;Samples;Min_cycle;Max_cycle;Signal;HPM_P1;HPM_P2
2021/09/02 00:01:20;;;;;;;16.48;6.80;;;17.30;97.90;;;;;;4991679;28;20034;-73
2021/09/02 00:03:46;;;;;;;17.50;7.15;;;17.20;98.00;;;;;;4991860;28;20030;-72
2021/09/02 00:06:11;;;;;;;21.30;7.57;;;17.20;98.30;;;;;;4991613;28;20345;-72
2021/09/02 00:08:37;;;;;;;17.50;8.05;;;17.00;98.50;;;;;;4992063;28;20384;-72
2021/09/02 00:11:02;;;;;;;20.33;7.85;;;16.90;98.80;;;;;;4991540;28;20038;-72
2021/09/02 00:13:28;;;;;;;16.90;8.10;;;17.00;98.60;;;;;;4991954;28;20444;-72
2021/09/02 00:15:53;;;;;;;18.73;7.40;;;17.00;98.70;;;;;;4991504;28;20026;-73
2021/09/02 00:18:19;;;;;;;17.05;7.93;;;17.00;98.70;;;;;;4991761;28;20034;-71
2021/09/02 00:20:45;;;;;;;18.80;7.75;;;17.00;98.70;;;;;;4991736;28;20108;-72
2021/09/02 00:23:10;;;;;;;19.17;8.05;;;16.90;98.70;;;;;;4990412;28;20034;-71
2021/09/02 00:25:36;;;;;;;16.95;7.57;;;16.90;98.80;;;;;;4991743;28;20041;-71
2021/09/02 00:28:03;;;;;;;17.75;6.90;;;17.00;98.80;;;;;;4991465;28;20101;-72
2021/09/02 00:30:28;;;;;;;20.58;7.70;;;16.90;98.90;;;;;;4990404;28;20585;-73
2021/09/02 00:32:54;;;;;;;19.27;8.10;;;16.90;98.90;;;;;;4991958;28;20061;-71
2021/09/02 00:35:19;;;;;;;19.17;8.00;;;16.80;99.20;;;;;;4991412;28;20121;-72
2021/09/02 00:37:45;;;;;;;21.17;7.53;;;16.80;99.20;;;;;;4991525;28;20096;-72
2021/09/02 00:40:12;;;;;;;18.73;7.20;;;16.70;99.30;;;;;;4991587;28;20181;-71
2021/09/02 00:42:37;;;;;;;24.20;8.13;;;16.80;99.30;;;;;;4991472;28;20045;-72
2021/09/02 00:45:04;;;;;;;23.65;7.55;;;16.70;99.30;;;;;;4991111;28;20034;-73
2021/09/02 00:47:31;;;;;;;20.05;7.80;;;16.80;99.30;;;;;;4990754;28;20033;-71
2021/09/02 00:49:57;;;;;;;22.90;9.02;;;16.70;99.40;;;;;;4990286;28;20408;-71
2021/09/02 00:52:26;;;;;;;18.20;8.23;;;16.80;99.30;;;;;;4991222;28;20046;-72
2021/09/02 00:54:54;;;;;;;16.42;7.65;;;16.80;99.40;;;;;;4991467;28;20030;-72
2021/09/02 00:57:24;;;;;;;19.02;7.55;;;16.70;99.50;;;;;;4991182;28;20329;-72
2021/09/02 01:00:01;;;;;;;23.17;8.60;;;16.80;99.40;;;;;;4992233;28;20113;-72
2021/09/02 01:02:28;;;;;;;19.88;7.85;;;16.70;99.50;;;;;;4995283;28;20042;-71
2021/09/02 01:04:55;;;;;;;15.65;6.93;;;16.80;99.20;;;;;;4995199;28;20031;-72
2021/09/02 01:07:25;;;;;;;20.02;8.05;;;16.80;99.20;;;;;;4995156;28;20030;-73
2021/09/02 01:09:54;;;;;;;14.65;7.00;;;16.80;99.30;;;;;;4994850;28;20034;-73
2021/09/02 01:12:39;;;;;;;27.35;8.45;;;16.70;99.30;;;;;;4994687;28;20377;-73
2021/09/02 01:15:18;;;;;;;21.95;8.55;;;16.60;99.50;;;;;;4994628;28;20316;-73
2021/09/02 01:17:46;;;;;;;20.98;8.88;;;16.70;99.40;;;;;;4995243;28;20359;-72
2021/09/02 01:20:18;;;;;;;13.40;7.00;;;16.70;99.50;;;;;;4994529;28;20054;-73
2021/09/02 01:22:45;;;;;;;17.17;8.23;;;16.60;99.60;;;;;;4994779;28;20046;-73
2021/09/02 01:25:16;;;;;;;16.63;7.63;;;16.50;99.50;;;;;;4994446;28;20118;-72
2021/09/02 01:27:45;;;;;;;17.10;7.15;;;16.50;99.70;;;;;;4994650;28;20108;-72
2021/09/02 01:30:14;;;;;;;16.95;7.82;;;16.50;99.50;;;;;;4994488;28;20404;-72
2021/09/02 01:32:41;;;;;;;15.85;7.47;;;16.40;99.60;;;;;;4995082;28;20019;-72
2021/09/02 01:35:09;;;;;;;20.65;8.30;;;16.40;99.70;;;;;;4993899;28;20466;-71
2021/09/02 01:37:45;;;;;;;;;;;16.40;99.70;;;;;;5010127;28;20041;-72
2021/09/02 01:40:14;;;;;;;23.10;8.98;;;16.30;99.70;;;;;;4994341;28;20398;-72
2021/09/02 01:42:39;;;;;;;19.60;8.32;;;16.30;99.80;;;;;;4994333;28;20027;-72
2021/09/02 01:45:05;;;;;;;21.52;8.70;;;16.30;99.70;;;;;;4994108;28;20026;-72
2021/09/02 01:47:31;;;;;;;19.20;8.57;;;16.20;99.80;;;;;;4994759;28;20116;-72
2021/09/02 01:50:07;;;;;;;19.33;9.40;;;16.10;99.90;;;;;;4994213;28;20074;-74
2021/09/02 01:52:33;;;;;;;19.23;8.95;;;16.10;99.90;;;;;;4994085;28;20030;-72
2021/09/02 01:54:59;;;;;;;17.17;7.78;;;16.10;99.90;;;;;;4994115;28;20483;-72
2021/09/02 01:57:24;;;;;;;20.67;8.65;;;16.00;99.90;;;;;;4993825;28;20345;-73
2021/09/02 01:59:50;;;;;;;19.88;8.68;;;16.00;99.90;;;;;;4994365;28;20113;-72
2021/09/02 02:02:17;;;;;;;25.05;8.98;;;15.90;99.90;;;;;;4993985;28;20610;-72
2021/09/02 02:04:42;;;;;;;19.90;8.18;;;15.90;99.90;;;;;;4993918;28;20022;-73
2021/09/02 02:07:08;;;;;;;20.92;8.15;;;15.90;99.90;;;;;;4993755;28;20109;-72
2021/09/02 02:09:34;;;;;;;14.32;8.05;;;15.90;99.90;;;;;;4993696;28;20108;-72
2021/09/02 02:11:59;;;;;;;14.88;7.63;;;15.90;99.90;;;;;;4993301;28;20539;-73
2021/09/02 02:14:25;;;;;;;14.90;8.18;;;15.80;99.90;;;;;;4994056;28;20041;-73
2021/09/02 02:16:50;;;;;;;16.27;7.80;;;15.80;99.90;;;;;;4993631;28;20394;-71
2021/09/02 02:19:16;;;;;;;17.70;8.68;;;15.80;99.90;;;;;;4993559;28;20089;-72
2021/09/02 02:21:42;;;;;;;17.88;8.25;;;15.80;99.90;;;;;;4993214;28;20085;-73
2021/09/02 02:24:08;;;;;;;17.42;8.35;;;15.80;99.90;;;;;;4993529;28;20034;-72
2021/09/02 02:26:33;;;;;;;16.33;7.68;;;15.80;99.90;;;;;;4993814;28;20024;-72
2021/09/02 02:28:59;;;;;;;20.65;8.95;;;15.90;99.90;;;;;;4993378;28;20242;-72
2021/09/02 02:31:24;;;;;;;20.55;8.70;;;15.90;99.90;;;;;;4993247;28;20023;-72
2021/09/02 02:33:50;;;;;;;22.40;9.88;;;15.80;99.90;;;;;;4993481;28;20054;-72
2021/09/02 02:36:15;;;;;;;19.27;9.38;;;15.90;99.90;;;;;;5008696;28;20038;-72
2021/09/02 02:38:41;;;;;;;17.35;8.18;;;15.90;99.90;;;;;;4993546;28;20086;-71
2021/09/02 02:41:07;;;;;;;25.58;8.20;;;15.90;99.90;;;;;;4993286;28;20030;-71
2021/09/02 02:43:32;;;;;;;25.08;8.63;;;16.00;99.90;;;;;;4992906;28;20030;-72
2021/09/02 02:45:58;;;;;;;20.30;9.27;;;16.00;99.90;;;;;;4993280;28;20022;-72
2021/09/02 02:48:25;;;;;;;24.70;9.35;;;16.10;99.90;;;;;;4992970;28;20031;-73
2021/09/02 02:50:51;;;;;;;23.35;9.85;;;16.10;99.90;;;;;;4993150;28;20050;-70
2021/09/02 02:53:16;;;;;;;22.45;11.32;;;16.10;99.90;;;;;;4992787;28;20039;-73
2021/09/02 02:55:42;;;;;;;28.15;10.25;;;16.10;99.90;;;;;;4992803;28;20038;-73
2021/09/02 02:58:08;;;;;;;23.27;10.35;;;16.10;99.90;;;;;;4992924;28;20057;-73
2021/09/02 03:00:34;;;;;;;23.10;9.38;;;16.10;99.90;;;;;;4991743;28;20349;-74
2021/09/02 03:02:59;;;;;;;20.38;9.63;;;16.10;99.90;;;;;;4993225;28;20030;-73
2021/09/02 03:05:25;;;;;;;20.95;9.88;;;16.20;99.90;;;;;;4993129;28;20037;-73
2021/09/02 03:07:50;;;;;;;22.77;9.52;;;16.20;99.90;;;;;;4991740;28;20049;-72
2021/09/02 03:10:16;;;;;;;26.65;10.20;;;16.20;99.90;;;;;;4992774;28;20043;-72
2021/09/02 03:12:41;;;;;;;21.48;9.70;;;16.30;99.90;;;;;;4992696;28;20030;-72
2021/09/02 03:15:08;;;;;;;23.85;11.63;;;16.30;99.90;;;;;;5007984;28;20100;-73
2021/09/02 03:17:35;;;;;;;20.45;10.35;;;16.30;99.90;;;;;;4993271;28;20168;-73
2021/09/02 03:20:02;;;;;;;23.65;10.68;;;16.30;99.90;;;;;;4992230;28;20046;-73
2021/09/02 03:22:28;;;;;;;28.27;10.50;;;16.40;99.90;;;;;;4991854;28;20034;-73
2021/09/02 03:24:53;;;;;;;24.65;10.10;;;16.40;99.90;;;;;;4992357;28;20097;-72
2021/09/02 03:27:19;;;;;;;20.52;10.23;;;16.30;99.90;;;;;;4992323;28;20030;-72
2021/09/02 03:29:44;;;;;;;25.95;10.15;;;16.30;99.90;;;;;;4992445;28;20526;-73
2021/09/02 03:32:10;;;;;;;24.95;9.88;;;16.30;99.90;;;;;;4992458;28;20022;-72
2021/09/02 03:34:36;;;;;;;24.73;10.52;;;16.30;99.90;;;;;;4992357;28;20050;-73
2021/09/02 03:37:01;;;;;;;23.45;10.48;;;16.40;99.90;;;;;;4992202;28;20034;-72
2021/09/02 03:39:27;;;;;;;26.30;10.52;;;16.40;99.90;;;;;;4991922;28;20089;-73
2021/09/02 03:41:52;;;;;;;28.55;11.00;;;16.40;99.90;;;;;;4991344;28;20053;-73
2021/09/02 03:44:18;;;;;;;28.08;9.40;;;16.40;99.90;;;;;;4992048;28;20499;-73
2021/09/02 03:46:43;;;;;;;23.77;10.70;;;16.40;99.90;;;;;;4992004;28;20023;-72
2021/09/02 03:49:09;;;;;;;25.20;8.85;;;16.30;99.90;;;;;;4992095;28;20105;-73
2021/09/02 03:51:35;;;;;;;20.83;9.63;;;16.40;99.90;;;;;;4991898;28;20030;-72
2021/09/02 03:54:01;;;;;;;21.02;10.02;;;16.40;99.90;;;;;;4991894;28;20023;-72
2021/09/02 03:56:26;;;;;;;20.60;10.40;;;16.50;99.90;;;;;;4992128;28;20030;-72
2021/09/02 03:58:52;;;;;;;21.42;9.75;;;16.50;99.90;;;;;;4991654;28;20100;-72
2021/09/02 04:01:18;;;;;;;23.83;11.40;;;16.50;99.90;;;;;;4992011;28;20041;-71
2021/09/02 04:03:44;;;;;;;23.60;11.35;;;16.50;99.90;;;;;;4991674;28;20031;-71
2021/09/02 04:06:09;;;;;;;27.42;11.60;;;16.50;99.90;;;;;;4991712;28;20037;-72
2021/09/02 04:08:35;;;;;;;31.65;11.00;;;16.50;99.90;;;;;;4991828;28;20037;-73
2021/09/02 04:11:00;;;;;;;27.65;11.85;;;16.50;99.90;;;;;;4990552;28;20145;-73
2021/09/02 04:13:26;;;;;;;22.25;11.10;;;16.60;99.90;;;;;;4991581;28;20038;-71
2021/09/02 04:15:52;;;;;;;35.53;13.95;;;16.60;99.90;;;;;;4991665;28;20034;-71
2021/09/02 04:18:17;;;;;;;26.13;11.88;;;16.60;99.90;;;;;;4991389;28;20038;-72
2021/09/02 04:20:43;;;;;;;29.02;12.45;;;16.60;99.90;;;;;;4991594;28;20097;-74
2021/09/02 04:23:09;;;;;;;27.05;12.93;;;16.60;99.90;;;;;;4991817;28;20030;-71
2021/09/02 04:25:34;;;;;;;29.08;13.68;;;16.60;99.90;;;;;;4990397;28;20460;-72
2021/09/02 04:28:00;;;;;;;42.97;12.90;;;16.60;99.90;;;;;;4991352;28;20044;-72
2021/09/02 04:30:25;;;;;;;27.75;13.00;;;16.60;99.90;;;;;;4991233;28;20034;-72
2021/09/02 04:32:51;;;;;;;24.77;12.60;;;16.60;99.90;;;;;;4991654;28;20038;-72
2021/09/02 04:35:17;;;;;;;32.90;14.13;;;16.60;99.90;;;;;;4994205;28;20486;-72
2021/09/02 04:37:45;;;;;;;29.50;12.43;;;16.60;99.90;;;;;;4994212;28;20089;-74
2021/09/02 04:40:12;;;;;;;;;;;16.60;99.90;;;;;;4996030;28;20061;-73
2021/09/02 04:42:38;;;;;;;29.47;13.07;;;16.60;99.90;;;;;;4995124;28;19910;-72
2021/09/02 04:45:05;;;;;;;31.38;13.45;;;16.60;99.90;;;;;;4995306;28;20049;-72
2021/09/02 04:47:31;;;;;;;34.47;14.63;;;16.60;99.90;;;;;;4995809;28;20057;-73
2021/09/02 04:49:57;;;;;;;32.88;15.15;;;16.60;99.90;;;;;;4994893;28;20087;-73
2021/09/02 04:52:22;;;;;;;35.67;14.57;;;16.60;99.90;;;;;;4995337;28;20027;-73
2021/09/02 04:54:48;;;;;;;29.88;14.88;;;16.60;99.90;;;;;;4995022;28;20559;-73
2021/09/02 04:57:14;;;;;;;31.00;13.60;;;16.60;99.90;;;;;;4994257;28;20018;-73
2021/09/02 04:59:39;;;;;;;30.83;14.32;;;16.70;99.90;;;;;;4995464;28;20073;-74
2021/09/02 05:02:05;;;;;;;26.13;13.82;;;16.70;99.90;;;;;;4995188;28;20045;-73
2021/09/02 05:04:30;;;;;;;29.38;13.82;;;16.70;99.90;;;;;;4994031;28;20523;-74
2021/09/02 05:06:56;;;;;;;35.00;14.70;;;16.60;99.90;;;;;;4994593;28;20084;-72
2021/09/02 05:09:22;;;;;;;32.67;15.15;;;16.60;99.90;;;;;;4994678;28;20038;-72
2021/09/02 05:11:47;;;;;;;37.47;15.15;;;16.60;99.90;;;;;;4994918;28;20157;-72
2021/09/02 05:14:13;;;;;;;46.10;16.23;;;16.60;99.90;;;;;;4994645;28;20460;-73
2021/09/02 05:16:39;;;;;;;36.28;15.95;;;16.60;99.90;;;;;;4994703;28;20031;-74
2021/09/02 05:19:04;;;;;;;37.35;15.60;;;16.80;99.90;;;;;;4994597;28;20042;-73
2021/09/02 05:21:30;;;;;;;29.08;14.20;;;16.70;99.90;;;;;;4994604;28;20049;-72
2021/09/02 05:23:55;;;;;;;30.55;14.20;;;16.70;99.90;;;;;;4994975;28;20036;-72
2021/09/02 05:26:21;;;;;;;33.80;14.38;;;16.70;99.90;;;;;;4994773;28;20038;-73
2021/09/02 05:28:47;;;;;;;38.85;15.32;;;16.70;99.90;;;;;;4994661;28;20424;-73
2021/09/02 05:31:13;;;;;;;29.02;14.98;;;16.70;99.90;;;;;;4994339;28;20046;-73
2021/09/02 05:33:38;;;;;;;31.42;14.50;;;16.70;99.90;;;;;;4994266;28;20419;-72
2021/09/02 05:36:04;;;;;;;42.28;15.38;;;16.80;99.90;;;;;;4994304;28;20030;-72
2021/09/02 05:38:30;;;;;;;34.45;15.20;;;16.70;99.90;;;;;;4994511;28;20667;-73
2021/09/02 05:40:56;;;;;;;30.27;14.43;;;16.70;99.90;;;;;;4993657;28;20034;-70
2021/09/02 05:43:22;;;;;;;25.02;14.48;;;16.70;99.90;;;;;;4994102;28;20237;-74
2021/09/02 05:45:48;;;;;;;28.60;13.48;;;16.80;99.90;;;;;;4992971;28;20478;-74
2021/09/02 05:48:13;;;;;;;30.80;14.80;;;16.70;99.90;;;;;;4994010;28;20372;-73
2021/09/02 05:50:39;;;;;;;41.20;18.48;;;16.70;99.90;;;;;;4994351;28;20084;-73
2021/09/02 05:53:05;;;;;;;36.83;15.40;;;16.80;99.90;;;;;;4993793;28;20046;-74
2021/09/02 05:55:30;;;;;;;35.08;14.10;;;16.80;99.90;;;;;;4992960;28;20113;-74
2021/09/02 05:57:56;;;;;;;33.17;15.13;;;16.80;99.90;;;;;;4992537;28;20050;-75
2021/09/02 06:00:21;;;;;;;29.55;14.07;;;16.80;99.90;;;;;;4994087;28;20472;-75
2021/09/02 06:02:47;;;;;;;42.80;14.75;;;16.80;99.90;;;;;;4994292;28;20360;-77
2021/09/02 06:05:12;;;;;;;31.30;14.48;;;16.90;99.90;;;;;;4993014;28;20118;-73
2021/09/02 06:07:38;;;;;;;29.08;13.45;;;16.90;99.90;;;;;;4993449;28;20340;-73
2021/09/02 06:10:05;;;;;;;31.80;14.65;;;17.00;99.90;;;;;;4993521;28;20482;-75
2021/09/02 06:12:31;;;;;;;30.75;14.73;;;17.00;99.90;;;;;;4993730;28;20601;-75
2021/09/02 06:14:56;;;;;;;31.35;13.45;;;17.00;99.90;;;;;;4993628;28;20319;-72
2021/09/02 06:17:22;;;;;;;28.50;12.63;;;16.90;99.90;;;;;;4994056;28;20041;-74
2021/09/02 06:19:47;;;;;;;34.20;13.90;;;16.90;99.90;;;;;;4993013;28;20038;-75
2021/09/02 06:22:13;;;;;;;27.85;12.95;;;17.00;99.90;;;;;;4993323;28;20034;-75
2021/09/02 06:24:38;;;;;;;33.05;14.15;;;17.00;99.90;;;;;;4993594;28;20332;-75
2021/09/02 06:27:04;;;;;;;27.40;12.85;;;17.10;99.90;;;;;;4992075;28;20367;-75
2021/09/02 06:29:30;;;;;;;30.25;12.63;;;17.00;99.90;;;;;;4992963;28;20427;-76
2021/09/02 06:31:55;;;;;;;35.58;16.23;;;17.10;99.90;;;;;;4992772;28;20034;-75
2021/09/02 06:34:21;;;;;;;33.40;13.98;;;17.00;99.90;;;;;;4993202;28;20050;-71
2021/09/02 06:36:47;;;;;;;26.98;13.85;;;17.10;99.90;;;;;;4993061;28;20031;-76
2021/09/02 06:39:12;;;;;;;26.30;12.35;;;17.10;99.90;;;;;;4992930;28;20027;-77
2021/09/02 06:41:38;;;;;;;32.63;13.32;;;17.10;99.90;;;;;;4992982;28;20025;-76
2021/09/02 06:44:04;;;;;;;25.98;11.38;;;17.10;99.90;;;;;;4993439;28;20057;-75
2021/09/02 06:46:30;;;;;;;21.80;9.73;;;17.20;99.90;;;;;;4992654;28;20041;-75
2021/09/02 06:48:55;;;;;;;23.40;10.15;;;17.20;99.90;;;;;;4992200;28;20475;-73
2021/09/02 06:51:21;;;;;;;21.48;9.52;;;17.20;99.90;;;;;;4992745;28;20038;-76
2021/09/02 06:53:47;;;;;;;25.20;8.45;;;17.20;99.90;;;;;;4992935;28;20030;-74
2021/09/02 06:56:12;;;;;;;14.85;8.07;;;17.30;99.90;;;;;;4992336;28;20291;-74
2021/09/02 06:58:38;;;;;;;18.35;8.57;;;17.30;99.90;;;;;;4992002;28;20332;-72
2021/09/02 07:01:04;;;;;;;37.55;11.85;;;17.30;99.90;;;;;;4992165;28;20157;-74
2021/09/02 07:03:29;;;;;;;25.25;11.13;;;17.40;99.90;;;;;;4992429;28;20038;-75
2021/09/02 07:05:55;;;;;;;29.38;12.70;;;17.40;99.90;;;;;;4992474;28;20092;-74
2021/09/02 07:08:20;;;;;;;34.97;13.05;;;17.40;99.90;;;;;;4992185;28;20065;-74
2021/09/02 07:10:46;;;;;;;29.83;13.82;;;17.40;99.90;;;;;;4992163;28;20037;-71
2021/09/02 07:13:11;;;;;;;30.33;13.18;;;17.50;99.90;;;;;;4991176;28;20038;-76
2021/09/02 07:15:38;;;;;;;29.90;13.38;;;17.50;99.80;;;;;;4992121;28;20105;-74
2021/09/02 07:18:03;;;;;;;30.40;13.10;;;17.50;99.80;;;;;;4992006;28;20453;-72
2021/09/02 07:20:29;;;;;;;29.05;14.05;;;17.50;99.90;;;;;;4992151;28;20057;-74
2021/09/02 07:22:55;;;;;;;34.47;13.13;;;17.50;99.80;;;;;;4992380;28;20121;-76
2021/09/02 07:25:24;;;;;;;38.20;17.52;;;17.60;99.70;;;;;;4991198;28;20038;-73
2021/09/02 07:27:49;;;;;;;29.30;13.68;;;17.70;99.80;;;;;;4991966;28;20065;-73
2021/09/02 07:30:14;;;;;;;31.85;13.18;;;17.80;99.70;;;;;;4990850;28;20068;-74
2021/09/02 07:32:40;;;;;;;27.65;11.38;;;17.90;99.70;;;;;;4992478;28;20097;-74
2021/09/02 07:35:06;;;;;;;22.23;9.82;;;17.90;99.40;;;;;;4991781;28;20045;-72
2021/09/02 07:37:32;;;;;;;22.98;10.43;;;17.90;99.20;;;;;;4991594;28;20034;-71
2021/09/02 07:39:58;;;;;;;23.30;10.18;;;18.00;99.40;;;;;;4991593;28;20037;-74
2021/09/02 07:42:23;;;;;;;28.92;11.45;;;18.10;99.10;;;;;;4990679;28;20034;-72
2021/09/02 07:44:49;;;;;;;24.48;10.05;;;18.10;98.80;;;;;;4992137;28;20018;-73
2021/09/02 07:47:15;;;;;;;17.13;7.40;;;18.20;99.00;;;;;;4991382;28;20034;-74
2021/09/02 07:49:41;;;;;;;22.73;8.10;;;18.20;98.20;;;;;;4991667;28;20048;-75
2021/09/02 07:52:09;;;;;;;13.82;6.82;;;18.30;98.30;;;;;;4991486;28;20081;-74
2021/09/02 07:54:35;;;;;;;;;;;18.40;98.00;;;;;;4990741;28;20113;-72
2021/09/02 07:57:01;;;;;;;15.05;7.35;;;18.50;97.80;;;;;;4991326;28;20386;-71
2021/09/02 07:59:27;;;;;;;22.48;8.35;;;18.60;98.00;;;;;;4991792;28;20085;-72
2021/09/02 08:01:52;;;;;;;18.70;7.18;;;18.60;97.60;;;;;;4991536;28;20038;-71
2021/09/02 08:04:18;;;;;;;20.52;7.25;;;18.70;97.60;;;;;;4990189;28;20494;-72
2021/09/02 08:06:43;;;;;;;20.55;6.50;;;18.90;97.20;;;;;;4991435;28;20559;-72
2021/09/02 08:09:09;;;;;;;23.02;7.72;;;19.00;97.20;;;;;;4990801;28;20352;-73
2021/09/02 08:11:34;;;;;;;24.48;7.22;;;19.10;96.90;;;;;;4991689;28;20018;-73
2021/09/02 08:14:00;;;;;;;18.20;7.75;;;19.20;96.80;;;;;;4991334;28;20042;-71
2021/09/02 08:16:26;;;;;;;26.08;10.68;;;19.30;96.60;;;;;;4990986;28;20030;-72
2021/09/02 08:18:52;;;;;;;21.00;8.25;;;19.30;96.50;;;;;;4991117;28;20578;-72
2021/09/02 08:21:18;;;;;;;19.13;8.48;;;19.30;96.50;;;;;;4989536;28;20050;-74
2021/09/02 08:23:44;;;;;;;18.42;8.20;;;19.30;96.60;;;;;;4990306;28;20118;-72
2021/09/02 08:26:10;;;;;;;21.85;8.45;;;19.30;96.40;;;;;;4990929;28;20114;-72
2021/09/02 08:28:35;;;;;;;21.95;9.25;;;19.40;96.70;;;;;;4990896;28;20452;-72
2021/09/02 08:31:01;;;;;;;21.15;8.45;;;19.30;96.00;;;;;;4990697;28;20038;-73
2021/09/02 08:33:26;;;;;;;21.45;10.18;;;19.40;96.10;;;;;;4990984;28;20395;-73
2021/09/02 08:35:55;;;;;;;28.17;10.20;;;19.30;96.10;;;;;;4991284;28;20041;-72
2021/09/02 08:38:21;;;;;;;22.75;9.98;;;19.10;96.10;;;;;;4990881;28;20041;-73
2021/09/02 08:40:47;;;;;;;21.23;9.35;;;19.10;96.20;;;;;;4991244;28;20038;-74
2021/09/02 08:43:13;;;;;;;23.88;10.75;;;19.20;96.30;;;;;;4990105;28;20472;-76
2021/09/02 08:45:38;;;;;;;25.13;11.13;;;19.30;95.80;;;;;;4991030;28;20038;-75
2021/09/02 08:48:05;;;;;;;29.58;10.95;;;19.30;95.70;;;;;;4991286;28;20317;-71
2021/09/02 08:50:34;;;;;;;22.02;10.45;;;19.40;95.70;;;;;;4991245;28;20176;-74
2021/09/02 08:53:00;;;;;;;20.63;10.05;;;19.40;95.50;;;;;;4990912;28;20100;-73
2021/09/02 08:55:27;;;;;;;23.88;9.85;;;19.40;95.40;;;;;;4991432;28;20026;-75
2021/09/02 08:57:54;;;;;;;27.08;10.45;;;19.40;95.80;;;;;;4991104;28;20034;-72
2021/09/02 09:00:21;;;;;;;26.00;9.70;;;19.50;95.50;;;;;;4990798;28;20345;-70
2021/09/02 09:02:55;;;;;;;25.13;9.68;;;19.50;95.40;;;;;;4991464;28;20093;-74
2021/09/02 09:05:20;;;;;;;21.13;9.45;;;19.40;95.40;;;;;;4970570;28;20105;-76
2021/09/02 09:07:48;;;;;;;27.60;9.60;;;19.50;95.50;;;;;;4986212;28;20065;-72
2021/09/02 09:10:22;;;;;;;20.48;8.80;;;19.50;95.50;;;;;;4990803;28;20130;-75
2021/09/02 09:12:52;;;;;;;20.10;9.00;;;19.70;95.70;;;;;;4990840;28;20027;-75
2021/09/02 09:15:22;;;;;;;24.95;9.38;;;19.60;95.30;;;;;;4989822;28;20046;-75
2021/09/02 09:17:50;;;;;;;27.52;9.90;;;19.70;95.40;;;;;;4991255;28;20291;-73
2021/09/02 09:20:17;;;;;;;21.38;9.23;;;19.70;95.30;;;;;;4990652;28;20113;-75
2021/09/02 09:22:46;;;;;;;23.73;9.25;;;19.70;95.30;;;;;;4994011;28;20038;-73
2021/09/02 09:25:13;;;;;;;21.42;8.95;;;19.80;95.30;;;;;;4994398;28;20478;-74
2021/09/02 09:27:53;;;;;;;20.92;8.50;;;19.80;95.40;;;;;;4994388;28;20031;-75
2021/09/02 09:30:24;;;;;;;22.77;8.65;;;19.80;95.40;;;;;;4994085;28;20093;-74
2021/09/02 09:32:55;;;;;;;18.27;8.38;;;19.80;95.50;;;;;;4994629;28;20037;-76
2021/09/02 09:35:24;;;;;;;19.80;8.25;;;19.90;95.30;;;;;;4994404;28;20062;-71
2021/09/02 09:38:02;;;;;;;22.73;9.18;;;19.90;95.20;;;;;;4994139;28;20050;-71
2021/09/02 09:40:28;;;;;;;21.33;8.80;;;19.90;94.80;;;;;;4993913;28;20118;-71
2021/09/02 09:43:20;;;;;;;22.25;9.30;;;19.90;94.90;;;;;;4993769;28;20121;-72
2021/09/02 09:45:54;;;;;;;17.15;8.90;;;19.90;95.00;;;;;;4994029;28;20109;-72
2021/09/02 09:48:20;;;;;;;17.45;9.23;;;20.10;94.90;;;;;;4993987;28;20098;-70
2021/09/02 09:51:03;;;;;;;19.98;9.57;;;20.10;94.40;;;;;;4994057;28;20022;-72
2021/09/02 09:53:29;;;;;;;24.52;9.45;;;20.10;94.50;;;;;;4993547;28;20052;-75
2021/09/02 09:55:55;;;;;;;20.35;10.07;;;20.00;94.50;;;;;;4993595;28;20472;-74
2021/09/02 09:58:27;;;;;;;21.67;10.00;;;20.10;94.70;;;;;;4993965;28;20034;-73
2021/09/02 10:00:58;;;;;;;32.25;10.52;;;20.20;94.80;;;;;;4993748;28;20034;-73
2021/09/02 10:03:24;;;;;;;20.15;9.68;;;20.20;94.80;;;;;;4993660;28;20041;-74
2021/09/02 10:05:51;;;;;;;22.80;9.35;;;20.30;95.00;;;;;;4993715;28;20077;-76
2021/09/02 10:08:17;;;;;;;20.10;10.32;;;20.40;94.90;;;;;;4993446;28;20027;-75
2021/09/02 10:10:43;;;;;;;19.85;10.50;;;20.40;94.30;;;;;;4993162;28;20161;-74
2021/09/02 10:13:11;;;;;;;27.15;11.45;;;20.40;94.20;;;;;;4993429;28;20399;-74
2021/09/02 10:15:36;;;;;;;24.75;10.90;;;20.40;94.20;;;;;;4993364;28;20796;-75
2021/09/02 10:18:03;;;;;;;20.90;10.38;;;20.60;94.40;;;;;;4993315;28;20475;-75
2021/09/02 10:20:37;;;;;;;26.63;9.88;;;20.60;94.00;;;;;;4993234;28;20134;-74
2021/09/02 10:23:04;;;;;;;21.85;10.90;;;20.60;93.90;;;;;;4993229;28;20035;-75
2021/09/02 10:25:33;;;;;;;21.17;10.10;;;20.60;94.10;;;;;;4991993;28;20030;-77
2021/09/02 10:27:59;;;;;;;20.08;12.13;;;20.60;93.70;;;;;;4992974;28;20400;-75
2021/09/02 10:30:26;;;;;;;15.73;10.35;;;20.70;93.70;;;;;;4991831;28;20475;-75
2021/09/02 10:32:53;;;;;;;18.25;9.80;;;20.90;93.60;;;;;;4993054;28;20034;-71
2021/09/02 10:35:31;;;;;;;19.38;10.10;;;21.00;93.30;;;;;;4992813;28;20035;-72
2021/09/02 10:37:57;;;;;;;19.65;9.55;;;21.20;93.30;;;;;;4992908;28;20153;-71
2021/09/02 10:40:22;;;;;;;20.33;9.85;;;21.30;93.20;;;;;;4992570;28;20130;-72
2021/09/02 10:42:50;;;;;;;23.27;10.70;;;21.20;92.80;;;;;;4992614;28;20069;-69
2021/09/02 10:45:25;;;;;;;20.88;9.90;;;21.30;92.20;;;;;;4992697;28;20097;-72
2021/09/02 10:48:02;;;;;;;17.05;10.40;;;21.50;92.50;;;;;;4993065;28;20224;-73
2021/09/02 10:50:30;;;;;;;31.53;16.77;;;21.40;92.30;;;;;;4992716;28;20448;-73
2021/09/02 10:53:17;;;;;;;22.98;11.15;;;21.50;92.80;;;;;;4992508;28;20042;-72
2021/09/02 10:55:51;;;;;;;19.45;10.02;;;21.70;92.70;;;;;;4992357;28;20027;-73
2021/09/02 10:58:45;;;;;;;20.65;10.80;;;21.60;92.00;;;;;;4992290;28;20038;-72
2021/09/02 11:01:22;;;;;;;24.70;10.80;;;21.70;92.00;;;;;;4992159;28;20710;-69
2021/09/02 11:03:49;;;;;;;18.75;9.63;;;21.50;92.40;;;;;;4992229;28;20062;-72
2021/09/02 11:06:15;;;;;;;23.55;10.43;;;21.70;93.00;;;;;;4990924;28;20401;-72
2021/09/02 11:08:41;;;;;;;21.35;11.10;;;21.60;92.60;;;;;;4992774;28;20014;-72
2021/09/02 11:11:13;;;;;;;21.05;10.10;;;21.40;92.60;;;;;;4992390;28;20038;-71
2021/09/02 11:13:41;;;;;;;17.58;9.45;;;21.50;92.50;;;;;;4992201;28;20323;-71
2021/09/02 11:16:08;;;;;;;19.33;9.13;;;21.50;92.60;;;;;;4992159;28;20041;-71
2021/09/02 11:18:48;;;;;;;19.60;9.25;;;21.30;92.50;;;;;;4992349;28;20034;-71
2021/09/02 11:21:16;;;;;;;20.15;9.20;;;21.50;92.90;;;;;;4991777;28;20447;-70
2021/09/02 11:23:45;;;;;;;;;;;21.60;92.50;;;;;;4991827;28;20041;-70
2021/09/02 11:26:27;;;;;;;21.30;9.85;;;21.60;92.20;;;;;;4991850;28;20249;-72
2021/09/02 11:28:52;;;;;;;20.88;9.40;;;21.60;92.50;;;;;;4991828;28;20056;-73
2021/09/02 11:31:18;;;;;;;20.65;10.50;;;21.70;92.50;;;;;;4991883;28;20038;-72
2021/09/02 11:33:48;;;;;;;19.08;9.90;;;21.60;92.50;;;;;;4991929;28;20049;-72
2021/09/02 11:36:14;;;;;;;21.75;9.48;;;21.70;92.60;;;;;;4991700;28;20073;-72
2021/09/02 11:38:45;;;;;;;17.45;8.73;;;21.80;92.50;;;;;;4992115;28;20038;-73
2021/09/02 11:41:20;;;;;;;17.65;7.93;;;21.80;92.20;;;;;;4990663;28;20031;-73
2021/09/02 11:43:46;;;;;;;15.63;6.60;;;21.80;91.80;;;;;;4991286;28;20121;-73
2021/09/02 11:46:13;;;;;;;18.98;8.60;;;21.80;92.00;;;;;;4990547;28;20038;-73
2021/09/02 11:48:56;;;;;;;20.25;6.95;;;21.80;91.50;;;;;;4991703;28;20033;-72
2021/09/02 11:51:24;;;;;;;12.00;6.07;;;21.70;91.20;;;;;;4991384;28;20470;-71
2021/09/02 11:54:10;;;;;;;16.55;6.88;;;21.70;91.40;;;;;;4991962;28;20117;-72
2021/09/02 11:56:37;;;;;;;21.60;6.65;;;21.70;91.60;;;;;;4991634;28;20113;-73
2021/09/02 11:59:05;;;;;;;17.92;5.70;;;21.90;91.40;;;;;;4991505;28;20026;-73
2021/09/02 12:01:31;;;;;;;14.13;5.95;;;22.10;91.60;;;;;;4991417;28;20031;-74
2021/09/02 12:03:57;;;;;;;15.10;5.70;;;22.40;91.10;;;;;;4991438;28;20034;-74
2021/09/02 12:06:30;;;;;;;13.88;5.60;;;22.60;90.90;;;;;;4991201;28;20045;-70
2021/09/02 12:08:59;;;;;;;15.73;6.32;;;22.70;90.50;;;;;;4991809;28;20087;-74
2021/09/02 12:11:26;;;;;;;17.73;6.25;;;22.80;90.30;;;;;;4990552;28;20077;-73
2021/09/02 12:13:54;;;;;;;23.67;6.93;;;22.80;90.10;;;;;;4991583;28;20543;-74
2021/09/02 12:16:22;;;;;;;17.80;6.18;;;22.90;90.20;;;;;;4991409;28;20034;-74
2021/09/02 12:18:49;;;;;;;17.58;6.65;;;22.80;90.00;;;;;;4991238;28;20022;-71
2021/09/02 12:21:17;;;;;;;15.82;6.63;;;22.80;90.00;;;;;;4991177;28;20053;-73
2021/09/02 12:23:49;;;;;;;17.60;7.00;;;22.80;90.10;;;;;;4990668;28;20041;-74
2021/09/02 12:26:16;;;;;;;14.95;7.35;;;22.70;89.60;;;;;;4991189;28;20304;-72
2021/09/02 12:28:45;;;;;;;11.77;6.45;;;22.50;89.10;;;;;;4991145;28;20609;-73
2021/09/02 12:31:22;;;;;;;22.02;7.13;;;22.50;89.50;;;;;;4989829;28;20111;-73
2021/09/02 12:34:20;;;;;;;17.67;7.32;;;22.50;89.20;;;;;;4991096;28;20412;-69